createdAt,value
2022-10-26T00:06:55.838Z,18.70
2022-10-26T00:15:03.689Z,18.60
2022-10-26T00:23:08.974Z,18.50
2022-10-26T00:31:18.942Z,18.40
2022-10-26T00:39:24.484Z,18.30
2022-10-26T00:47:42.841Z,18.20
2022-10-26T00:55:50.712Z,18.20
2022-10-26T01:03:59.692Z,18.10
2022-10-26T01:12:05.036Z,18.10
2022-10-26T01:20:42.745Z,18.10
2022-10-26T01:29:17.292Z,18.00
2022-10-26T01:37:29.882Z,17.90
2022-10-26T01:45:37.202Z,17.90
2022-10-26T01:53:49.487Z,18.00
2022-10-26T02:02:21.698Z,18.00
2022-10-26T02:10:41.585Z,17.90
2022-10-26T02:18:53.333Z,17.80
2022-10-26T02:27:03.333Z,17.70
2022-10-26T02:35:09.431Z,17.60
2022-10-26T02:43:22.200Z,17.50
2022-10-26T02:51:34.565Z,17.40
2022-10-26T02:59:47.727Z,17.30
2022-10-26T03:07:52.994Z,16.40
2022-10-26T03:16:01.561Z,16.50
2022-10-26T03:24:07.092Z,16.40
2022-10-26T03:32:15.119Z,16.20
2022-10-26T03:40:20.535Z,16.30
2022-10-26T03:48:28.426Z,16.30
2022-10-26T03:56:34.117Z,16.20
2022-10-26T04:04:42.052Z,15.80
2022-10-26T04:12:47.395Z,16.00
2022-10-26T04:20:55.295Z,16.00
2022-10-26T04:29:00.614Z,16.10
2022-10-26T04:37:08.456Z,16.20
2022-10-26T04:45:15.005Z,16.30
2022-10-26T04:53:22.868Z,16.40
2022-10-26T05:01:28.287Z,16.40
2022-10-26T05:09:36.410Z,16.30
2022-10-26T05:17:41.658Z,16.30
2022-10-26T05:25:49.962Z,16.20
2022-10-26T05:33:55.278Z,16.30
2022-10-26T05:42:03.188Z,16.40
2022-10-26T05:50:09.282Z,16.40
2022-10-26T05:58:18.515Z,16.30
2022-10-26T06:06:25.780Z,16.50
2022-10-26T06:14:34.468Z,16.70
2022-10-26T06:22:55.586Z,16.20
2022-10-26T06:31:03.484Z,16.60
2022-10-26T06:39:11.798Z,16.60
2022-10-26T06:47:27.212Z,16.90
2022-10-26T06:55:40.338Z,17.30
2022-10-26T07:03:48.198Z,17.70
2022-10-26T07:11:53.466Z,18.00
2022-10-26T07:20:01.532Z,18.50
2022-10-26T07:28:06.932Z,18.70
2022-10-26T07:36:14.946Z,19.20
2022-10-26T07:44:20.215Z,19.30
2022-10-26T07:52:28.173Z,19.10
2022-10-26T08:00:33.472Z,19.70
2022-10-26T08:08:44.977Z,20.20
2022-10-26T08:16:53.121Z,20.90
2022-10-26T08:25:01.115Z,21.10
2022-10-26T08:33:08.440Z,22.00
2022-10-26T08:41:17.155Z,27.90
2022-10-26T08:49:25.578Z,33.70
2022-10-26T08:57:41.481Z,39.30
2022-10-26T09:06:00.141Z,41.20
2022-10-26T09:14:16.554Z,43.20
2022-10-26T09:22:27.353Z,44.30
2022-10-26T09:30:36.051Z,45.20
2022-10-26T09:38:46.467Z,45.60
2022-10-26T09:46:59.858Z,45.50
2022-10-26T09:55:05.068Z,46.00
2022-10-26T10:03:24.493Z,46.10
2022-10-26T10:11:41.095Z,46.00
2022-10-26T10:19:49.431Z,44.60
2022-10-26T10:27:57.355Z,36.50
2022-10-26T10:36:07.414Z,31.20
2022-10-26T10:44:24.243Z,28.60
2022-10-26T10:52:34.316Z,27.40
2022-10-26T11:00:40.850Z,26.60
2022-10-26T11:08:53.440Z,26.50
2022-10-26T11:17:05.535Z,26.10
2022-10-26T11:25:21.181Z,25.10
2022-10-26T11:33:30.092Z,25.20
2022-10-26T11:41:44.280Z,25.20
2022-10-26T11:49:56.933Z,25.00
2022-10-26T11:58:05.914Z,24.70
2022-10-26T12:06:11.321Z,24.60
2022-10-26T12:14:26.369Z,24.50
2022-10-26T12:22:35.353Z,24.40
2022-10-26T12:30:43.385Z,24.20
2022-10-26T12:39:03.625Z,24.20
2022-10-26T12:47:12.569Z,24.00
2022-10-26T12:55:53.554Z,24.10
2022-10-26T13:04:11.991Z,23.90
2022-10-26T13:12:17.516Z,23.80
2022-10-26T13:20:25.713Z,23.50
2022-10-26T13:28:47.374Z,23.70
2022-10-26T13:37:07.456Z,23.70
2022-10-26T13:45:18.021Z,23.70
2022-10-26T13:53:31.628Z,23.40
2022-10-26T14:01:37.012Z,23.20
2022-10-26T14:09:45.300Z,23.20
2022-10-26T14:17:54.222Z,23.40
2022-10-26T14:26:02.178Z,23.60
2022-10-26T14:34:08.214Z,23.30
2022-10-26T14:42:23.226Z,23.00
2022-10-26T14:50:32.081Z,23.10
2022-10-26T14:58:40.112Z,23.00
2022-10-26T15:06:47.013Z,22.70
2022-10-26T15:14:55.463Z,22.90
2022-10-26T15:23:02.587Z,22.80
2022-10-26T15:31:31.523Z,22.70
2022-10-26T15:39:36.960Z,22.20
2022-10-26T16:14:14.877Z,21.60
2022-10-26T16:22:22.808Z,21.50
2022-10-26T16:30:30.544Z,21.40
2022-10-26T16:38:38.871Z,21.30
2022-10-26T16:46:44.232Z,21.20
2022-10-26T16:54:52.140Z,21.00
2022-10-26T17:02:57.706Z,20.90
2022-10-26T17:11:09.154Z,20.80
2022-10-26T17:19:14.771Z,20.60
2022-10-26T17:27:23.274Z,20.40
2022-10-26T18:27:23.106Z,19.80
2022-10-26T18:35:30.991Z,19.70
2022-10-26T18:43:36.642Z,19.60
2022-10-26T18:51:44.616Z,19.50
2022-10-26T18:59:54.143Z,19.50
2022-10-26T19:08:03.093Z,19.50
2022-10-26T19:16:17.188Z,19.10
2022-10-26T19:24:34.932Z,19.20
2022-10-26T19:32:40.201Z,19.10
2022-10-26T19:40:48.046Z,19.00
2022-10-26T19:48:54.308Z,19.00
2022-10-26T19:57:02.276Z,19.00
2022-10-26T20:05:08.277Z,19.00
2022-10-26T20:13:17.222Z,18.90
2022-10-26T20:21:22.634Z,18.80
2022-10-26T20:29:30.568Z,18.70
2022-10-26T20:37:36.723Z,18.60
2022-10-26T20:45:45.263Z,18.60
2022-10-26T20:53:54.871Z,18.50
2022-10-26T21:02:02.783Z,18.50
2022-10-26T21:10:09.185Z,18.40
2022-10-26T21:18:17.059Z,18.40
2022-10-26T21:26:22.326Z,18.30
2022-10-26T21:34:30.239Z,18.10
2022-10-26T21:42:35.581Z,18.00
2022-10-26T21:50:44.746Z,18.00
2022-10-26T21:58:50.798Z,17.90
2022-10-26T22:06:58.684Z,17.90
2022-10-26T22:15:03.948Z,17.80
2022-10-26T22:23:11.869Z,17.70
2022-10-26T22:31:18.885Z,17.50
2022-10-26T22:39:27.414Z,17.40
2022-10-26T22:47:32.613Z,17.20
2022-10-26T22:55:43.727Z,17.00
2022-10-26T23:03:49.510Z,16.90
2022-10-26T23:11:57.505Z,16.90
2022-10-26T23:20:02.807Z,16.90
2022-10-26T23:28:13.805Z,16.90
2022-10-26T23:36:19.162Z,16.80
2022-10-26T23:44:27.019Z,16.80
2022-10-26T23:52:32.277Z,16.60
